Terminal Aerodrome Forecast
Issued by NWS

Home | Current Version | Previous Version | Text Only | Print | Product List | Glossary On
Versions: 1 2 3 4 5 6 7 8 9 10 11 12 13 14 15 16 17 18
682
FTUS43 KIND 112326
TAFLAF
TAF
KLAF 112326Z 1200/1224 27003KT P6SM SCT100 BKN250
     FM120500 00000KT P6SM OVC080
     FM120900 24005KT P6SM BKN040 OVC080
      TEMPO 1210/1214 4SM -SN
     FM121500 26011KT P6SM BKN025 OVC040
     FM122000 30015G23KT P6SM OVC025
      AMD LTD TO CLD VIS AND WIND 1202/1214=

USA.gov is the U.S. government's official web portal to all federal, state and local government web resources and services.